sensor_id;sensor_type;location;lat;lon;timestamp;temperature;humidity
75489;HTU21D;64069;46.396;48.102;2023-11-22T00:01:23;-0.94;100.35
75489;HTU21D;64069;46.396;48.102;2023-11-22T00:03:55;-0.97;100.15
75489;HTU21D;64069;46.396;48.102;2023-11-22T00:06:31;-0.97;100.12
75489;HTU21D;64069;46.396;48.102;2023-11-22T00:09:02;-0.98;100.08
75489;HTU21D;64069;46.396;48.102;2023-11-22T00:11:35;-0.99;99.97
75489;HTU21D;64069;46.396;48.102;2023-11-22T00:14:01;-0.99;99.93
75489;HTU21D;64069;46.396;48.102;2023-11-22T00:16:32;-1.00;99.87
75489;HTU21D;64069;46.396;48.102;2023-11-22T00:19:06;-1.01;99.85
75489;HTU21D;64069;46.396;48.102;2023-11-22T00:21:37;-1.01;99.80
75489;HTU21D;64069;46.396;48.102;2023-11-22T00:24:09;-1.03;99.71
75489;HTU21D;64069;46.396;48.102;2023-11-22T00:26:40;-1.04;99.67
75489;HTU21D;64069;46.396;48.102;2023-11-22T00:29:21;-1.03;99.69
75489;HTU21D;64069;46.396;48.102;2023-11-22T00:31:57;-1.04;99.58
75489;HTU21D;64069;46.396;48.102;2023-11-22T00:34:36;-1.03;99.57
75489;HTU21D;64069;46.396;48.102;2023-11-22T00:37:08;-1.05;99.42
75489;HTU21D;64069;46.396;48.102;2023-11-22T00:39:44;-1.06;99.39
75489;HTU21D;64069;46.396;48.102;2023-11-22T00:42:18;-1.09;99.32
75489;HTU21D;64069;46.396;48.102;2023-11-22T00:44:53;-1.10;99.19
75489;HTU21D;64069;46.396;48.102;2023-11-22T00:47:22;-1.10;99.13
75489;HTU21D;64069;46.396;48.102;2023-11-22T00:49:53;-1.10;99.14
75489;HTU21D;64069;46.396;48.102;2023-11-22T00:52:22;-1.09;99.09
75489;HTU21D;64069;46.396;48.102;2023-11-22T00:54:49;-1.10;98.87
75489;HTU21D;64069;46.396;48.102;2023-11-22T00:57:23;-1.11;98.71
75489;HTU21D;64069;46.396;48.102;2023-11-22T00:59:53;-1.13;98.60
75489;HTU21D;64069;46.396;48.102;2023-11-22T01:02:26;-1.14;98.42
75489;HTU21D;64069;46.396;48.102;2023-11-22T01:05:06;-1.13;98.39
75489;HTU21D;64069;46.396;48.102;2023-11-22T01:07:41;-1.14;98.32
75489;HTU21D;64069;46.396;48.102;2023-11-22T01:10:22;-1.12;98.35
75489;HTU21D;64069;46.396;48.102;2023-11-22T01:12:54;-1.10;98.24
75489;HTU21D;64069;46.396;48.102;2023-11-22T01:15:22;-1.10;98.06
75489;HTU21D;64069;46.396;48.102;2023-11-22T01:17:51;-1.10;97.90
75489;HTU21D;64069;46.396;48.102;2023-11-22T01:20:23;-1.08;97.98
75489;HTU21D;64069;46.396;48.102;2023-11-22T01:22:49;-1.09;97.88
75489;HTU21D;64069;46.396;48.102;2023-11-22T01:25:29;-1.08;97.84
75489;HTU21D;64069;46.396;48.102;2023-11-22T01:28:01;-1.05;97.78
75489;HTU21D;64069;46.396;48.102;2023-11-22T01:30:35;-1.06;97.73
75489;HTU21D;64069;46.396;48.102;2023-11-22T01:33:12;-1.04;97.71
75489;HTU21D;64069;46.396;48.102;2023-11-22T01:35:41;-1.04;97.68
75489;HTU21D;64069;46.396;48.102;2023-11-22T01:38:16;-1.03;97.61
75489;HTU21D;64069;46.396;48.102;2023-11-22T01:40:48;-1.01;97.60
75489;HTU21D;64069;46.396;48.102;2023-11-22T01:43:23;-1.00;97.57
75489;HTU21D;64069;46.396;48.102;2023-11-22T01:45:58;-1.00;97.43
75489;HTU21D;64069;46.396;48.102;2023-11-22T01:48:29;-0.99;97.34
75489;HTU21D;64069;46.396;48.102;2023-11-22T01:51:04;-0.99;97.23
75489;HTU21D;64069;46.396;48.102;2023-11-22T01:53:44;-0.99;97.16
75489;HTU21D;64069;46.396;48.102;2023-11-22T01:56:22;-0.98;97.09
75489;HTU21D;64069;46.396;48.102;2023-11-22T01:59:03;-0.97;96.99
75489;HTU21D;64069;46.396;48.102;2023-11-22T02:01:35;-0.97;96.96
75489;HTU21D;64069;46.396;48.102;2023-11-22T02:04:06;-0.97;96.90
75489;HTU21D;64069;46.396;48.102;2023-11-22T02:06:34;-0.96;96.84
75489;HTU21D;64069;46.396;48.102;2023-11-22T02:09:03;-0.95;96.75
75489;HTU21D;64069;46.396;48.102;2023-11-22T02:11:35;-0.94;96.66
75489;HTU21D;64069;46.396;48.102;2023-11-22T02:14:10;-0.95;96.59
75489;HTU21D;64069;46.396;48.102;2023-11-22T02:16:37;-0.91;96.58
75489;HTU21D;64069;46.396;48.102;2023-11-22T02:21:53;-0.90;96.46
75489;HTU21D;64069;46.396;48.102;2023-11-22T02:24:19;-0.88;96.43
75489;HTU21D;64069;46.396;48.102;2023-11-22T02:26:46;-0.89;96.31
75489;HTU21D;64069;46.396;48.102;2023-11-22T02:29:16;-0.88;96.30
75489;HTU21D;64069;46.396;48.102;2023-11-22T02:31:46;-0.86;96.22
75489;HTU21D;64069;46.396;48.102;2023-11-22T02:34:14;-0.84;96.20
75489;HTU21D;64069;46.396;48.102;2023-11-22T02:36:50;-0.83;96.16
75489;HTU21D;64069;46.396;48.102;2023-11-22T02:39:51;-0.83;96.04
75489;HTU21D;64069;46.396;48.102;2023-11-22T02:42:23;-0.82;95.92
75489;HTU21D;64069;46.396;48.102;2023-11-22T02:44:54;-0.81;95.96
75489;HTU21D;64069;46.396;48.102;2023-11-22T02:47:31;-0.80;95.90
75489;HTU21D;64069;46.396;48.102;2023-11-22T02:50:02;-0.77;95.84
75489;HTU21D;64069;46.396;48.102;2023-11-22T02:52:36;-0.77;95.80
75489;HTU21D;64069;46.396;48.102;2023-11-22T02:55:06;-0.77;95.69
75489;HTU21D;64069;46.396;48.102;2023-11-22T02:57:43;-0.76;95.68
75489;HTU21D;64069;46.396;48.102;2023-11-22T03:00:25;-0.74;95.61
75489;HTU21D;64069;46.396;48.102;2023-11-22T03:02:54;-0.72;95.59
75489;HTU21D;64069;46.396;48.102;2023-11-22T03:05:36;-0.70;95.59
75489;HTU21D;64069;46.396;48.102;2023-11-22T03:08:15;-0.68;95.49
75489;HTU21D;64069;46.396;48.102;2023-11-22T03:10:50;-0.68;95.46
75489;HTU21D;64069;46.396;48.102;2023-11-22T03:13:27;-0.67;95.48
75489;HTU21D;64069;46.396;48.102;2023-11-22T03:16:01;-0.65;95.47
75489;HTU21D;64069;46.396;48.102;2023-11-22T03:18:41;-0.65;95.44
75489;HTU21D;64069;46.396;48.102;2023-11-22T03:21:10;-0.65;95.39
75489;HTU21D;64069;46.396;48.102;2023-11-22T03:23:41;-0.64;95.34
75489;HTU21D;64069;46.396;48.102;2023-11-22T03:26:18;-0.62;95.30
75489;HTU21D;64069;46.396;48.102;2023-11-22T03:28:48;-0.61;95.23
75489;HTU21D;64069;46.396;48.102;2023-11-22T03:31:20;-0.60;95.22
75489;HTU21D;64069;46.396;48.102;2023-11-22T03:33:57;-0.60;95.19
75489;HTU21D;64069;46.396;48.102;2023-11-22T03:36:29;-0.59;95.18
75489;HTU21D;64069;46.396;48.102;2023-11-22T03:39:03;-0.59;95.11
75489;HTU21D;64069;46.396;48.102;2023-11-22T03:41:38;-0.56;95.08
75489;HTU21D;64069;46.396;48.102;2023-11-22T03:44:12;-0.56;95.08
75489;HTU21D;64069;46.396;48.102;2023-11-22T03:46:39;-0.57;95.08
75489;HTU21D;64069;46.396;48.102;2023-11-22T03:49:08;-0.50;95.20
75489;HTU21D;64069;46.396;48.102;2023-11-22T03:51:40;-0.47;95.08
75489;HTU21D;64069;46.396;48.102;2023-11-22T03:54:07;-0.46;95.10
75489;HTU21D;64069;46.396;48.102;2023-11-22T03:56:43;-0.44;94.95
75489;HTU21D;64069;46.396;48.102;2023-11-22T03:59:10;-0.46;94.94
75489;HTU21D;64069;46.396;48.102;2023-11-22T04:01:36;-0.42;94.99
75489;HTU21D;64069;46.396;48.102;2023-11-22T04:04:03;-0.41;95.02
75489;HTU21D;64069;46.396;48.102;2023-11-22T04:06:29;-0.39;94.96
75489;HTU21D;64069;46.396;48.102;2023-11-22T04:08:55;-0.41;94.95
75489;HTU21D;64069;46.396;48.102;2023-11-22T04:11:35;-0.41;94.92
75489;HTU21D;64069;46.396;48.102;2023-11-22T04:14:33;-0.42;94.87
75489;HTU21D;64069;46.396;48.102;2023-11-22T04:17:07;-0.42;94.69
75489;HTU21D;64069;46.396;48.102;2023-11-22T04:19:33;-0.44;94.70
75489;HTU21D;64069;46.396;48.102;2023-11-22T04:22:04;-0.44;94.67
75489;HTU21D;64069;46.396;48.102;2023-11-22T04:24:35;-0.45;94.56
75489;HTU21D;64069;46.396;48.102;2023-11-22T04:27:02;-0.42;94.63
75489;HTU21D;64069;46.396;48.102;2023-11-22T04:29:37;-0.41;94.57
75489;HTU21D;64069;46.396;48.102;2023-11-22T04:32:16;-0.41;94.50
75489;HTU21D;64069;46.396;48.102;2023-11-22T04:34:48;-0.40;94.52
75489;HTU21D;64069;46.396;48.102;2023-11-22T04:37:14;-0.43;94.40
75489;HTU21D;64069;46.396;48.102;2023-11-22T04:39:51;-0.43;94.40
75489;HTU21D;64069;46.396;48.102;2023-11-22T04:42:27;-0.42;94.44
75489;HTU21D;64069;46.396;48.102;2023-11-22T04:45:01;-0.41;94.41
75489;HTU21D;64069;46.396;48.102;2023-11-22T04:47:35;-0.40;94.35
75489;HTU21D;64069;46.396;48.102;2023-11-22T04:50:01;-0.40;94.14
75489;HTU21D;64069;46.396;48.102;2023-11-22T04:52:28;-0.39;94.20
75489;HTU21D;64069;46.396;48.102;2023-11-22T04:54:54;-0.39;94.08
75489;HTU21D;64069;46.396;48.102;2023-11-22T04:57:36;-0.37;94.00
75489;HTU21D;64069;46.396;48.102;2023-11-22T05:00:06;-0.34;93.98
75489;HTU21D;64069;46.396;48.102;2023-11-22T05:02:37;-0.35;93.73
75489;HTU21D;64069;46.396;48.102;2023-11-22T05:05:08;-0.35;93.81
75489;HTU21D;64069;46.396;48.102;2023-11-22T05:07:40;-0.34;93.77
75489;HTU21D;64069;46.396;48.102;2023-11-22T05:10:12;-0.32;93.73
75489;HTU21D;64069;46.396;48.102;2023-11-22T05:12:38;-0.31;93.66
75489;HTU21D;64069;46.396;48.102;2023-11-22T05:15:07;-0.30;93.62
75489;HTU21D;64069;46.396;48.102;2023-11-22T05:17:45;-0.30;93.45
75489;HTU21D;64069;46.396;48.102;2023-11-22T05:20:14;-0.29;93.45
75489;HTU21D;64069;46.396;48.102;2023-11-22T05:23:06;-0.25;93.44
75489;HTU21D;64069;46.396;48.102;2023-11-22T05:25:39;-0.24;93.22
75489;HTU21D;64069;46.396;48.102;2023-11-22T05:28:11;-0.22;93.15
75489;HTU21D;64069;46.396;48.102;2023-11-22T05:30:50;-0.22;92.82
75489;HTU21D;64069;46.396;48.102;2023-11-22T05:33:22;-0.24;92.70
75489;HTU21D;64069;46.396;48.102;2023-11-22T05:35:52;-0.23;92.68
75489;HTU21D;64069;46.396;48.102;2023-11-22T05:38:24;-0.22;92.66
75489;HTU21D;64069;46.396;48.102;2023-11-22T05:40:57;-0.22;92.42
75489;HTU21D;64069;46.396;48.102;2023-11-22T05:43:34;-0.25;92.24
75489;HTU21D;64069;46.396;48.102;2023-11-22T05:46:14;-0.22;92.30
75489;HTU21D;64069;46.396;48.102;2023-11-22T05:48:58;-0.22;92.18
75489;HTU21D;64069;46.396;48.102;2023-11-22T05:51:29;-0.27;91.89
75489;HTU21D;64069;46.396;48.102;2023-11-22T05:54:00;-0.25;92.05
75489;HTU21D;64069;46.396;48.102;2023-11-22T05:56:34;-0.27;91.64
75489;HTU21D;64069;46.396;48.102;2023-11-22T05:59:09;-0.30;91.47
75489;HTU21D;64069;46.396;48.102;2023-11-22T06:01:35;-0.27;91.55
75489;HTU21D;64069;46.396;48.102;2023-11-22T06:04:02;-0.25;91.43
75489;HTU21D;64069;46.396;48.102;2023-11-22T06:06:29;-0.21;91.34
75489;HTU21D;64069;46.396;48.102;2023-11-22T06:08:55;-0.17;91.18
75489;HTU21D;64069;46.396;48.102;2023-11-22T06:11:21;-0.12;91.14
75489;HTU21D;64069;46.396;48.102;2023-11-22T06:13:47;-0.05;91.14
75489;HTU21D;64069;46.396;48.102;2023-11-22T06:16:13;-0.02;90.92
75489;HTU21D;64069;46.396;48.102;2023-11-22T06:18:39;-0.00;90.86
75489;HTU21D;64069;46.396;48.102;2023-11-22T06:21:10;0.06;90.79
75489;HTU21D;64069;46.396;48.102;2023-11-22T06:23:36;0.10;90.73
75489;HTU21D;64069;46.396;48.102;2023-11-22T06:26:02;0.19;90.69
75489;HTU21D;64069;46.396;48.102;2023-11-22T06:28:28;0.24;90.55
75489;HTU21D;64069;46.396;48.102;2023-11-22T06:30:55;0.28;90.31
75489;HTU21D;64069;46.396;48.102;2023-11-22T06:33:21;0.36;90.22
75489;HTU21D;64069;46.396;48.102;2023-11-22T06:35:47;0.37;89.89
75489;HTU21D;64069;46.396;48.102;2023-11-22T06:38:13;0.48;89.92
75489;HTU21D;64069;46.396;48.102;2023-11-22T06:40:39;0.65;89.80
75489;HTU21D;64069;46.396;48.102;2023-11-22T06:43:05;0.73;89.51
75489;HTU21D;64069;46.396;48.102;2023-11-22T06:45:31;0.71;89.28
75489;HTU21D;64069;46.396;48.102;2023-11-22T06:47:57;0.80;89.34
75489;HTU21D;64069;46.396;48.102;2023-11-22T06:50:27;0.88;89.09
75489;HTU21D;64069;46.396;48.102;2023-11-22T06:52:52;0.91;89.05
75489;HTU21D;64069;46.396;48.102;2023-11-22T06:55:19;0.87;88.60
75489;HTU21D;64069;46.396;48.102;2023-11-22T06:57:45;0.79;88.37
75489;HTU21D;64069;46.396;48.102;2023-11-22T07:00:11;0.73;88.28
75489;HTU21D;64069;46.396;48.102;2023-11-22T07:02:42;0.71;88.06
75489;HTU21D;64069;46.396;48.102;2023-11-22T07:05:08;0.73;88.24
75489;HTU21D;64069;46.396;48.102;2023-11-22T07:07:35;0.77;88.20
75489;HTU21D;64069;46.396;48.102;2023-11-22T07:10:03;0.84;88.18
75489;HTU21D;64069;46.396;48.102;2023-11-22T07:12:34;0.82;87.90
75489;HTU21D;64069;46.396;48.102;2023-11-22T07:15:01;0.76;87.55
75489;HTU21D;64069;46.396;48.102;2023-11-22T07:17:27;0.68;87.48
75489;HTU21D;64069;46.396;48.102;2023-11-22T07:19:55;0.71;87.66
75489;HTU21D;64069;46.396;48.102;2023-11-22T07:22:21;0.80;87.64
75489;HTU21D;64069;46.396;48.102;2023-11-22T07:24:49;0.78;87.37
75489;HTU21D;64069;46.396;48.102;2023-11-22T07:27:20;0.76;87.48
75489;HTU21D;64069;46.396;48.102;2023-11-22T07:29:46;0.77;87.38
75489;HTU21D;64069;46.396;48.102;2023-11-22T07:32:13;0.77;87.41
75489;HTU21D;64069;46.396;48.102;2023-11-22T07:34:40;0.80;87.44
75489;HTU21D;64069;46.396;48.102;2023-11-22T07:37:07;0.83;87.43
75489;HTU21D;64069;46.396;48.102;2023-11-22T07:39:34;0.80;87.44
75489;HTU21D;64069;46.396;48.102;2023-11-22T07:42:05;0.77;87.46
75489;HTU21D;64069;46.396;48.102;2023-11-22T07:44:34;0.74;87.23
75489;HTU21D;64069;46.396;48.102;2023-11-22T07:47:02;0.68;87.29
75489;HTU21D;64069;46.396;48.102;2023-11-22T07:49:28;0.68;87.35
75489;HTU21D;64069;46.396;48.102;2023-11-22T07:51:55;0.68;87.23
75489;HTU21D;64069;46.396;48.102;2023-11-22T07:54:22;0.67;87.25
75489;HTU21D;64069;46.396;48.102;2023-11-22T07:56:51;0.73;87.27
75489;HTU21D;64069;46.396;48.102;2023-11-22T07:59:18;0.77;87.19
75489;HTU21D;64069;46.396;48.102;2023-11-22T08:01:45;0.79;87.15
75489;HTU21D;64069;46.396;48.102;2023-11-22T08:04:13;0.78;87.12
75489;HTU21D;64069;46.396;48.102;2023-11-22T08:06:40;0.77;87.05
75489;HTU21D;64069;46.396;48.102;2023-11-22T08:09:06;0.78;87.17
75489;HTU21D;64069;46.396;48.102;2023-11-22T08:11:34;0.75;87.01
75489;HTU21D;64069;46.396;48.102;2023-11-22T08:14:02;0.67;86.98
75489;HTU21D;64069;46.396;48.102;2023-11-22T08:16:28;0.71;87.14
75489;HTU21D;64069;46.396;48.102;2023-11-22T08:18:54;0.64;86.81
75489;HTU21D;64069;46.396;48.102;2023-11-22T08:21:22;0.54;86.98
75489;HTU21D;64069;46.396;48.102;2023-11-22T08:23:49;0.51;87.11
75489;HTU21D;64069;46.396;48.102;2023-11-22T08:26:15;0.50;87.25
75489;HTU21D;64069;46.396;48.102;2023-11-22T08:28:42;0.50;87.28
75489;HTU21D;64069;46.396;48.102;2023-11-22T08:31:08;0.50;87.30
75489;HTU21D;64069;46.396;48.102;2023-11-22T08:33:38;0.47;87.36
75489;HTU21D;64069;46.396;48.102;2023-11-22T08:36:08;0.40;87.28
75489;HTU21D;64069;46.396;48.102;2023-11-22T08:38:36;0.39;87.48
75489;HTU21D;64069;46.396;48.102;2023-11-22T08:41:05;0.38;87.43
75489;HTU21D;64069;46.396;48.102;2023-11-22T08:43:32;0.33;87.45
75489;HTU21D;64069;46.396;48.102;2023-11-22T08:45:58;0.24;87.26
75489;HTU21D;64069;46.396;48.102;2023-11-22T08:48:25;0.17;87.47
75489;HTU21D;64069;46.396;48.102;2023-11-22T08:50:51;0.10;87.69
75489;HTU21D;64069;46.396;48.102;2023-11-22T08:53:19;0.08;87.85
75489;HTU21D;64069;46.396;48.102;2023-11-22T08:55:47;0.06;87.99
75489;HTU21D;64069;46.396;48.102;2023-11-22T08:58:14;-0.01;88.07
75489;HTU21D;64069;46.396;48.102;2023-11-22T09:00:41;-0.09;88.19
75489;HTU21D;64069;46.396;48.102;2023-11-22T09:03:11;-0.15;88.34
75489;HTU21D;64069;46.396;48.102;2023-11-22T09:05:41;-0.19;88.47
75489;HTU21D;64069;46.396;48.102;2023-11-22T09:08:08;-0.22;88.57
75489;HTU21D;64069;46.396;48.102;2023-11-22T09:10:44;-0.26;88.61
75489;HTU21D;64069;46.396;48.102;2023-11-22T09:13:10;-0.28;88.70
75489;HTU21D;64069;46.396;48.102;2023-11-22T09:15:37;-0.29;88.73
75489;HTU21D;64069;46.396;48.102;2023-11-22T09:18:04;-0.35;88.52
75489;HTU21D;64069;46.396;48.102;2023-11-22T09:20:31;-0.34;88.60
75489;HTU21D;64069;46.396;48.102;2023-11-22T09:22:57;-0.28;88.57
75489;HTU21D;64069;46.396;48.102;2023-11-22T09:25:26;-0.22;88.48
75489;HTU21D;64069;46.396;48.102;2023-11-22T09:27:57;-0.17;88.38
75489;HTU21D;64069;46.396;48.102;2023-11-22T09:30:31;-0.12;88.38
75489;HTU21D;64069;46.396;48.102;2023-11-22T09:33:05;-0.08;88.28
75489;HTU21D;64069;46.396;48.102;2023-11-22T09:35:34;-0.09;88.18
75489;HTU21D;64069;46.396;48.102;2023-11-22T09:38:04;-0.08;88.20
75489;HTU21D;64069;46.396;48.102;2023-11-22T09:40:35;-0.07;88.11
75489;HTU21D;64069;46.396;48.102;2023-11-22T09:43:02;0.01;88.09
75489;HTU21D;64069;46.396;48.102;2023-11-22T09:45:32;0.05;88.00
75489;HTU21D;64069;46.396;48.102;2023-11-22T09:47:59;0.05;87.93
75489;HTU21D;64069;46.396;48.102;2023-11-22T09:50:39;0.14;87.89
75489;HTU21D;64069;46.396;48.102;2023-11-22T09:53:14;0.22;87.89
75489;HTU21D;64069;46.396;48.102;2023-11-22T09:55:45;0.29;87.81
75489;HTU21D;64069;46.396;48.102;2023-11-22T09:58:16;0.30;87.71
75489;HTU21D;64069;46.396;48.102;2023-11-22T10:00:43;0.23;87.65
75489;HTU21D;64069;46.396;48.102;2023-11-22T10:03:12;0.24;87.95
75489;HTU21D;64069;46.396;48.102;2023-11-22T10:05:42;0.23;87.89
75489;HTU21D;64069;46.396;48.102;2023-11-22T10:08:08;0.23;88.02
75489;HTU21D;64069;46.396;48.102;2023-11-22T10:10:36;0.22;88.02
75489;HTU21D;64069;46.396;48.102;2023-11-22T10:13:02;0.21;88.13
75489;HTU21D;64069;46.396;48.102;2023-11-22T10:15:29;0.28;88.20
75489;HTU21D;64069;46.396;48.102;2023-11-22T10:17:57;0.32;88.15
75489;HTU21D;64069;46.396;48.102;2023-11-22T10:20:49;0.39;88.07
75489;HTU21D;64069;46.396;48.102;2023-11-22T10:23:18;0.49;87.85
75489;HTU21D;64069;46.396;48.102;2023-11-22T10:25:48;0.48;87.61
75489;HTU21D;64069;46.396;48.102;2023-11-22T10:28:22;0.47;87.59
75489;HTU21D;64069;46.396;48.102;2023-11-22T10:30:51;0.47;87.41
75489;HTU21D;64069;46.396;48.102;2023-11-22T10:33:20;0.44;87.23
75489;HTU21D;64069;46.396;48.102;2023-11-22T10:35:50;0.36;87.10
75489;HTU21D;64069;46.396;48.102;2023-11-22T10:38:20;0.32;87.19
75489;HTU21D;64069;46.396;48.102;2023-11-22T10:40:47;0.35;87.28
75489;HTU21D;64069;46.396;48.102;2023-11-22T10:43:17;0.35;87.22
75489;HTU21D;64069;46.396;48.102;2023-11-22T10:45:44;0.35;87.26
75489;HTU21D;64069;46.396;48.102;2023-11-22T10:48:16;0.31;87.22
75489;HTU21D;64069;46.396;48.102;2023-11-22T10:50:47;0.31;87.25
75489;HTU21D;64069;46.396;48.102;2023-11-22T10:53:15;0.25;87.29
75489;HTU21D;64069;46.396;48.102;2023-11-22T10:55:45;0.22;87.35
75489;HTU21D;64069;46.396;48.102;2023-11-22T10:58:14;0.17;87.38
75489;HTU21D;64069;46.396;48.102;2023-11-22T11:00:42;0.10;87.38
75489;HTU21D;64069;46.396;48.102;2023-11-22T11:03:14;0.04;87.45
75489;HTU21D;64069;46.396;48.102;2023-11-22T11:05:50;0.01;87.49
75489;HTU21D;64069;46.396;48.102;2023-11-22T11:08:17;-0.03;87.48
75489;HTU21D;64069;46.396;48.102;2023-11-22T11:10:46;-0.09;87.43
75489;HTU21D;64069;46.396;48.102;2023-11-22T11:13:12;-0.09;87.52
75489;HTU21D;64069;46.396;48.102;2023-11-22T11:15:40;-0.11;87.56
75489;HTU21D;64069;46.396;48.102;2023-11-22T11:18:07;-0.15;87.40
75489;HTU21D;64069;46.396;48.102;2023-11-22T11:21:08;-0.12;87.48
75489;HTU21D;64069;46.396;48.102;2023-11-22T11:23:41;-0.11;87.45
75489;HTU21D;64069;46.396;48.102;2023-11-22T11:26:15;-0.13;87.41
75489;HTU21D;64069;46.396;48.102;2023-11-22T11:28:49;-0.15;87.44
75489;HTU21D;64069;46.396;48.102;2023-11-22T11:31:22;-0.17;87.54
75489;HTU21D;64069;46.396;48.102;2023-11-22T11:33:53;-0.16;87.60
75489;HTU21D;64069;46.396;48.102;2023-11-22T11:36:24;-0.17;87.64
75489;HTU21D;64069;46.396;48.102;2023-11-22T11:38:51;-0.24;87.64
75489;HTU21D;64069;46.396;48.102;2023-11-22T11:41:17;-0.31;87.70
75489;HTU21D;64069;46.396;48.102;2023-11-22T11:43:47;-0.35;87.77
75489;HTU21D;64069;46.396;48.102;2023-11-22T11:46:14;-0.35;87.85
75489;HTU21D;64069;46.396;48.102;2023-11-22T11:48:49;-0.38;87.71
75489;HTU21D;64069;46.396;48.102;2023-11-22T11:51:20;-0.41;87.71
75489;HTU21D;64069;46.396;48.102;2023-11-22T11:53:46;-0.42;87.66
75489;HTU21D;64069;46.396;48.102;2023-11-22T11:56:12;-0.42;87.77
75489;HTU21D;64069;46.396;48.102;2023-11-22T11:58:43;-0.40;87.84
75489;HTU21D;64069;46.396;48.102;2023-11-22T12:01:12;-0.39;87.81
75489;HTU21D;64069;46.396;48.102;2023-11-22T12:03:38;-0.44;87.79
75489;HTU21D;64069;46.396;48.102;2023-11-22T12:06:06;-0.45;87.89
75489;HTU21D;64069;46.396;48.102;2023-11-22T12:08:32;-0.45;87.98
75489;HTU21D;64069;46.396;48.102;2023-11-22T12:11:06;-0.47;88.01
75489;HTU21D;64069;46.396;48.102;2023-11-22T12:13:37;-0.52;88.02
75489;HTU21D;64069;46.396;48.102;2023-11-22T12:16:16;-0.55;88.02
75489;HTU21D;64069;46.396;48.102;2023-11-22T12:18:43;-0.57;88.08
75489;HTU21D;64069;46.396;48.102;2023-11-22T12:21:11;-0.58;88.17
75489;HTU21D;64069;46.396;48.102;2023-11-22T12:23:42;-0.58;88.18
75489;HTU21D;64069;46.396;48.102;2023-11-22T12:26:15;-0.61;88.17
75489;HTU21D;64069;46.396;48.102;2023-11-22T12:28:44;-0.66;88.19
75489;HTU21D;64069;46.396;48.102;2023-11-22T12:31:12;-0.72;88.15
75489;HTU21D;64069;46.396;48.102;2023-11-22T12:33:40;-0.72;88.28
75489;HTU21D;64069;46.396;48.102;2023-11-22T12:36:08;-0.72;88.33
75489;HTU21D;64069;46.396;48.102;2023-11-22T12:38:47;-0.74;88.30
75489;HTU21D;64069;46.396;48.102;2023-11-22T12:41:14;-0.75;88.35
75489;HTU21D;64069;46.396;48.102;2023-11-22T12:43:40;-0.79;88.35
75489;HTU21D;64069;46.396;48.102;2023-11-22T12:46:07;-0.79;88.39
75489;HTU21D;64069;46.396;48.102;2023-11-22T12:48:33;-0.79;88.38
75489;HTU21D;64069;46.396;48.102;2023-11-22T12:51:00;-0.80;88.38
75489;HTU21D;64069;46.396;48.102;2023-11-22T12:53:26;-0.80;88.34
75489;HTU21D;64069;46.396;48.102;2023-11-22T12:55:56;-0.83;88.28
75489;HTU21D;64069;46.396;48.102;2023-11-22T12:58:26;-0.83;88.28
75489;HTU21D;64069;46.396;48.102;2023-11-22T13:00:54;-0.83;88.38
75489;HTU21D;64069;46.396;48.102;2023-11-22T13:03:33;-0.83;88.35
75489;HTU21D;64069;46.396;48.102;2023-11-22T13:05:59;-0.85;88.38
75489;HTU21D;64069;46.396;48.102;2023-11-22T13:08:28;-0.87;88.41
75489;HTU21D;64069;46.396;48.102;2023-11-22T13:10:55;-0.89;88.49
75489;HTU21D;64069;46.396;48.102;2023-11-22T13:13:27;-0.93;88.50
75489;HTU21D;64069;46.396;48.102;2023-11-22T13:15:53;-0.95;88.51
75489;HTU21D;64069;46.396;48.102;2023-11-22T13:18:20;-0.96;88.54
75489;HTU21D;64069;46.396;48.102;2023-11-22T13:20:47;-0.97;88.59
75489;HTU21D;64069;46.396;48.102;2023-11-22T13:23:13;-1.02;88.66
75489;HTU21D;64069;46.396;48.102;2023-11-22T13:25:40;-1.10;88.73
75489;HTU21D;64069;46.396;48.102;2023-11-22T13:28:07;-1.19;88.88
75489;HTU21D;64069;46.396;48.102;2023-11-22T13:30:34;-1.27;89.11
75489;HTU21D;64069;46.396;48.102;2023-11-22T13:33:01;-1.28;89.25
75489;HTU21D;64069;46.396;48.102;2023-11-22T13:35:28;-1.26;89.34
75489;HTU21D;64069;46.396;48.102;2023-11-22T13:37:58;-1.21;89.35
75489;HTU21D;64069;46.396;48.102;2023-11-22T13:40:25;-1.17;89.32
75489;HTU21D;64069;46.396;48.102;2023-11-22T13:42:56;-1.13;89.26
75489;HTU21D;64069;46.396;48.102;2023-11-22T13:45:22;-1.13;89.20
75489;HTU21D;64069;46.396;48.102;2023-11-22T13:47:50;-1.11;89.21
75489;HTU21D;64069;46.396;48.102;2023-11-22T13:50:17;-1.08;89.22
75489;HTU21D;64069;46.396;48.102;2023-11-22T13:52:53;-1.10;89.25
75489;HTU21D;64069;46.396;48.102;2023-11-22T13:55:19;-1.08;89.27
75489;HTU21D;64069;46.396;48.102;2023-11-22T13:57:50;-1.08;89.25
75489;HTU21D;64069;46.396;48.102;2023-11-22T14:00:17;-1.06;89.28
75489;HTU21D;64069;46.396;48.102;2023-11-22T14:02:54;-1.06;89.30
75489;HTU21D;64069;46.396;48.102;2023-11-22T14:05:22;-1.04;89.31
75489;HTU21D;64069;46.396;48.102;2023-11-22T14:07:48;-1.03;89.34
75489;HTU21D;64069;46.396;48.102;2023-11-22T14:10:14;-1.03;89.34
75489;HTU21D;64069;46.396;48.102;2023-11-22T14:12:43;-1.05;89.36
75489;HTU21D;64069;46.396;48.102;2023-11-22T14:15:13;-1.09;89.32
75489;HTU21D;64069;46.396;48.102;2023-11-22T14:17:39;-1.14;89.31
75489;HTU21D;64069;46.396;48.102;2023-11-22T14:20:10;-1.16;89.28
75489;HTU21D;64069;46.396;48.102;2023-11-22T14:22:40;-1.17;89.34
75489;HTU21D;64069;46.396;48.102;2023-11-22T14:25:08;-1.15;89.36
75489;HTU21D;64069;46.396;48.102;2023-11-22T14:27:43;-1.15;89.36
75489;HTU21D;64069;46.396;48.102;2023-11-22T14:30:12;-1.18;89.34
75489;HTU21D;64069;46.396;48.102;2023-11-22T14:32:43;-1.19;89.38
75489;HTU21D;64069;46.396;48.102;2023-11-22T14:35:09;-1.20;89.42
75489;HTU21D;64069;46.396;48.102;2023-11-22T14:37:37;-1.24;89.41
75489;HTU21D;64069;46.396;48.102;2023-11-22T14:40:08;-1.24;89.44
75489;HTU21D;64069;46.396;48.102;2023-11-22T14:42:43;-1.27;89.41
75489;HTU21D;64069;46.396;48.102;2023-11-22T14:45:17;-1.31;89.34
75489;HTU21D;64069;46.396;48.102;2023-11-22T14:47:45;-1.35;89.34
75489;HTU21D;64069;46.396;48.102;2023-11-22T14:50:14;-1.41;89.30
75489;HTU21D;64069;46.396;48.102;2023-11-22T14:52:41;-1.42;89.34
75489;HTU21D;64069;46.396;48.102;2023-11-22T14:55:09;-1.44;89.35
75489;HTU21D;64069;46.396;48.102;2023-11-22T14:57:37;-1.43;89.31
75489;HTU21D;64069;46.396;48.102;2023-11-22T15:00:05;-1.42;89.23
75489;HTU21D;64069;46.396;48.102;2023-11-22T15:02:35;-1.41;89.21
75489;HTU21D;64069;46.396;48.102;2023-11-22T15:05:02;-1.40;89.21
75489;HTU21D;64069;46.396;48.102;2023-11-22T15:07:31;-1.40;89.21
75489;HTU21D;64069;46.396;48.102;2023-11-22T15:09:57;-1.39;89.22
75489;HTU21D;64069;46.396;48.102;2023-11-22T15:12:23;-1.38;89.13
75489;HTU21D;64069;46.396;48.102;2023-11-22T15:14:49;-1.41;89.11
75489;HTU21D;64069;46.396;48.102;2023-11-22T15:17:15;-1.42;89.02
75489;HTU21D;64069;46.396;48.102;2023-11-22T15:19:43;-1.41;89.05
75489;HTU21D;64069;46.396;48.102;2023-11-22T15:22:09;-1.40;89.01
75489;HTU21D;64069;46.396;48.102;2023-11-22T15:24:35;-1.40;88.96
75489;HTU21D;64069;46.396;48.102;2023-11-22T15:27:04;-1.42;88.86